Time;durP1;ratioP1;P1;durP2;ratioP2;P2;SDS_P1;SDS_P2;PMS_P1;PMS_P2;Temp;Humidity;BMP_temperature;BMP_pressure;BME280_temperature;BME280_humidity;BME280_pressure;Samples;Min_cycle;Max_cycle;Signal;HPM_P1;HPM_P2
2021/05/16 00:00:54;;;;;;;4.60;1.90;;;18.80;53.00;;;;;;5112605;28;20358;-70
2021/05/16 00:03:21;;;;;;;6.05;2.30;;;19.00;52.60;;;;;;5114645;28;20047;-69
2021/05/16 00:05:48;;;;;;;6.60;2.80;;;18.90;52.40;;;;;;5100358;28;20031;-69
2021/05/16 00:08:15;;;;;;;11.25;3.20;;;18.90;52.90;;;;;;5114594;28;20024;-68
2021/05/16 00:10:42;;;;;;;6.05;3.03;;;18.80;52.70;;;;;;5089262;28;20065;-69
2021/05/16 00:13:10;;;;;;;9.52;3.30;;;18.80;52.70;;;;;;5114635;28;20470;-68
2021/05/16 00:15:37;;;;;;;8.35;3.10;;;18.70;52.90;;;;;;5114587;28;20051;-68
2021/05/16 00:18:04;;;;;;;7.60;2.70;;;18.70;52.90;;;;;;5088915;28;20040;-68
2021/05/16 00:20:32;;;;;;;5.55;3.45;;;18.80;52.70;;;;;;5083141;28;20047;-68
2021/05/16 00:22:59;;;;;;;2.60;2.03;;;18.80;52.80;;;;;;5092065;28;20032;-68
2021/05/16 00:25:27;;;;;;;6.45;2.65;;;18.80;52.80;;;;;;5086798;28;20350;-69
2021/05/16 00:27:54;;;;;;;9.55;1.58;;;18.80;52.60;;;;;;5095547;28;20102;-68
2021/05/16 00:30:25;;;;;;;3.30;1.70;;;18.80;52.80;;;;;;5091436;28;20020;-68
2021/05/16 00:32:52;;;;;;;3.38;2.42;;;18.80;52.40;;;;;;5070027;28;20035;-68
2021/05/16 00:35:21;;;;;;;8.25;2.85;;;18.70;53.10;;;;;;5097373;28;20027;-68
2021/05/16 00:37:48;;;;;;;5.53;2.67;;;18.60;53.10;;;;;;5108444;28;20085;-68
2021/05/16 00:40:16;;;;;;;8.18;2.25;;;18.50;53.20;;;;;;5088439;28;20056;-68
2021/05/16 00:42:43;;;;;;;6.40;2.38;;;18.40;53.40;;;;;;5086548;28;20502;-69
2021/05/16 00:45:12;;;;;;;4.82;2.10;;;18.30;53.60;;;;;;5083062;28;20041;-68
2021/05/16 00:47:44;;;;;;;5.70;3.03;;;18.20;53.90;;;;;;5087091;28;20035;-68
2021/05/16 00:50:11;;;;;;;7.15;2.45;;;18.20;54.00;;;;;;5101154;28;20479;-70
2021/05/16 00:52:41;;;;;;;7.20;2.53;;;18.00;54.50;;;;;;5078855;28;20063;-67
2021/05/16 00:55:09;;;;;;;7.65;2.90;;;17.80;54.80;;;;;;5088669;28;20349;-68
2021/05/16 00:57:35;;;;;;;9.65;3.78;;;17.70;55.40;;;;;;5087896;28;20031;-68
2021/05/16 01:00:06;;;;;;;10.45;3.28;;;17.60;55.60;;;;;;5102002;28;20045;-68
2021/05/16 01:02:33;;;;;;;10.45;2.80;;;17.60;55.80;;;;;;5096665;28;20076;-69
2021/05/16 01:04:59;;;;;;;5.15;2.05;;;17.50;56.20;;;;;;5099683;28;20032;-68
2021/05/16 01:07:27;;;;;;;6.82;2.80;;;17.40;56.40;;;;;;5095444;28;20448;-69
2021/05/16 01:09:54;;;;;;;3.92;2.35;;;17.30;56.70;;;;;;5095240;28;20408;-67
2021/05/16 01:12:21;;;;;;;5.95;3.97;;;17.30;56.90;;;;;;5095431;28;20028;-67
2021/05/16 01:14:48;;;;;;;10.77;3.03;;;17.30;56.80;;;;;;5090463;28;20021;-68
2021/05/16 01:17:15;;;;;;;7.43;3.80;;;17.40;56.60;;;;;;5086377;28;20111;-68
2021/05/16 01:19:42;;;;;;;11.95;3.45;;;17.50;56.80;;;;;;5089745;28;20035;-70
2021/05/16 01:22:08;;;;;;;5.65;2.42;;;17.50;56.50;;;;;;5099500;28;20110;-68
2021/05/16 01:24:38;;;;;;;9.98;3.83;;;17.60;56.40;;;;;;5091204;28;20026;-68
2021/05/16 01:27:11;;;;;;;10.93;3.38;;;17.50;56.60;;;;;;5095477;28;20328;-68
2021/05/16 01:29:38;;;;;;;8.93;3.03;;;17.50;56.70;;;;;;5088228;28;20032;-69
2021/05/16 01:32:10;;;;;;;7.32;3.78;;;17.40;56.60;;;;;;5092530;28;20508;-70
2021/05/16 01:34:42;;;;;;;6.70;3.25;;;17.50;56.70;;;;;;5089228;28;20032;-68
2021/05/16 01:37:10;;;;;;;3.92;2.25;;;17.40;56.50;;;;;;5091652;28;20045;-68
2021/05/16 01:39:37;;;;;;;5.38;2.03;;;17.40;56.70;;;;;;5088258;28;20027;-68
2021/05/16 01:42:04;;;;;;;6.80;2.95;;;17.40;56.80;;;;;;5095315;28;20020;-68
2021/05/16 01:44:33;;;;;;;7.00;2.85;;;17.50;56.60;;;;;;5087059;28;20017;-68
2021/05/16 01:47:02;;;;;;;3.83;3.15;;;17.50;56.60;;;;;;5075327;28;20437;-68
2021/05/16 01:49:29;;;;;;;12.20;2.97;;;17.50;56.60;;;;;;5093408;28;20036;-68
2021/05/16 01:51:55;;;;;;;5.85;2.38;;;17.60;56.50;;;;;;5086621;28;20064;-69
2021/05/16 01:54:22;;;;;;;6.28;2.40;;;17.50;56.40;;;;;;5087782;28;20028;-68
2021/05/16 01:56:49;;;;;;;5.65;2.42;;;17.50;56.50;;;;;;5090071;28;20090;-68
2021/05/16 01:59:16;;;;;;;13.77;4.57;;;17.50;56.40;;;;;;5077844;28;20075;-68
2021/05/16 02:01:42;;;;;;;4.65;2.13;;;17.40;56.40;;;;;;5095586;28;20085;-68
2021/05/16 02:04:10;;;;;;;8.02;3.58;;;17.30;56.40;;;;;;5087818;28;20051;-68
2021/05/16 02:06:39;;;;;;;7.32;3.15;;;17.30;56.90;;;;;;5088736;28;20024;-67
2021/05/16 02:09:06;;;;;;;9.63;2.78;;;17.20;57.00;;;;;;5094786;28;20051;-68
2021/05/16 02:11:32;;;;;;;11.52;3.83;;;17.00;57.50;;;;;;5092267;28;20076;-68
2021/05/16 02:13:59;;;;;;;7.05;2.85;;;16.90;57.70;;;;;;5089839;28;20028;-68
2021/05/16 02:16:25;;;;;;;8.60;2.90;;;16.70;58.10;;;;;;5087562;28;20095;-69
2021/05/16 02:18:51;;;;;;;7.05;3.50;;;16.70;58.70;;;;;;5087276;28;20048;-69
2021/05/16 02:21:18;;;;;;;4.47;2.78;;;16.50;59.00;;;;;;5096166;28;20020;-68
2021/05/16 02:23:44;;;;;;;7.97;2.85;;;16.50;59.40;;;;;;5094630;28;20028;-68
2021/05/16 02:26:10;;;;;;;9.68;3.58;;;16.40;59.70;;;;;;5085676;28;20460;-68
2021/05/16 02:28:37;;;;;;;11.60;4.65;;;16.30;60.00;;;;;;5073121;28;20032;-70
2021/05/16 02:31:11;;;;;;;7.20;2.95;;;16.20;60.50;;;;;;5101631;28;20535;-69
2021/05/16 02:33:37;;;;;;;7.07;3.97;;;16.10;60.60;;;;;;5115704;28;20024;-68
2021/05/16 02:36:04;;;;;;;9.88;3.17;;;16.00;61.10;;;;;;5103381;28;20068;-69
2021/05/16 02:38:31;;;;;;;18.17;3.33;;;15.90;61.30;;;;;;5088113;28;20039;-68
2021/05/16 02:40:57;;;;;;;7.75;2.83;;;15.80;61.80;;;;;;5090691;28;20036;-70
2021/05/16 02:43:23;;;;;;;18.50;4.90;;;15.70;61.80;;;;;;5075655;28;20029;-70
2021/05/16 02:45:50;;;;;;;14.30;3.25;;;15.70;62.40;;;;;;5093737;28;20031;-69
2021/05/16 02:48:16;;;;;;;13.20;4.05;;;15.60;62.30;;;;;;5093781;28;20027;-69
2021/05/16 02:50:43;;;;;;;8.05;4.25;;;15.60;62.50;;;;;;5093094;28;20024;-69
2021/05/16 02:53:09;;;;;;;14.07;2.80;;;15.40;62.10;;;;;;5097160;28;20032;-69
2021/05/16 02:55:36;;;;;;;16.90;4.15;;;15.40;62.30;;;;;;5090767;28;20039;-69
2021/05/16 02:58:02;;;;;;;10.38;3.90;;;15.30;62.80;;;;;;5095694;28;20024;-69
2021/05/16 03:00:28;;;;;;;9.18;4.13;;;15.30;63.00;;;;;;5096311;28;20012;-69
2021/05/16 03:02:55;;;;;;;13.77;4.28;;;15.30;63.40;;;;;;5123217;28;20078;-69
2021/05/16 03:05:21;;;;;;;7.07;3.50;;;15.30;63.00;;;;;;5115259;28;20052;-69
2021/05/16 03:07:48;;;;;;;20.10;4.15;;;15.20;63.80;;;;;;5091819;28;20020;-69
2021/05/16 03:10:14;;;;;;;11.50;3.53;;;15.30;63.30;;;;;;5096860;28;20102;-69
2021/05/16 03:12:41;;;;;;;9.88;4.15;;;15.30;63.80;;;;;;5078185;28;20032;-69
2021/05/16 03:15:08;;;;;;;15.90;4.35;;;15.10;63.70;;;;;;5099140;28;20028;-69
2021/05/16 03:17:34;;;;;;;7.20;4.30;;;15.10;64.00;;;;;;5092871;28;20030;-71
2021/05/16 03:20:01;;;;;;;9.85;4.18;;;15.10;63.90;;;;;;5095427;28;20043;-69
2021/05/16 03:22:27;;;;;;;16.27;5.00;;;15.00;64.50;;;;;;5097447;28;20031;-69
2021/05/16 03:24:53;;;;;;;15.07;5.15;;;15.00;65.00;;;;;;5109201;28;20053;-70
2021/05/16 03:27:20;;;;;;;16.15;5.25;;;15.00;64.70;;;;;;5105889;28;20020;-70
2021/05/16 03:29:46;;;;;;;16.27;4.28;;;14.90;64.90;;;;;;5105467;28;20030;-71
2021/05/16 03:32:13;;;;;;;13.88;5.22;;;14.80;64.30;;;;;;5097089;28;20054;-70
2021/05/16 03:34:39;;;;;;;8.75;4.72;;;14.80;64.80;;;;;;5099013;28;20031;-69
2021/05/16 03:37:05;;;;;;;22.25;4.70;;;14.80;64.60;;;;;;5086092;28;20065;-69
2021/05/16 03:39:32;;;;;;;18.17;3.70;;;14.90;65.20;;;;;;5088970;28;20473;-69
2021/05/16 03:41:58;;;;;;;13.38;4.03;;;14.80;64.60;;;;;;5089170;28;20027;-69
2021/05/16 03:44:25;;;;;;;13.93;4.00;;;14.80;65.00;;;;;;5092419;28;20020;-69
2021/05/16 03:46:52;;;;;;;13.90;4.68;;;14.90;65.60;;;;;;5098122;28;20451;-69
2021/05/16 03:49:19;;;;;;;9.80;3.67;;;14.80;65.00;;;;;;5090938;28;20039;-68
2021/05/16 03:51:45;;;;;;;11.68;4.85;;;14.80;65.90;;;;;;5071778;28;20031;-69
2021/05/16 03:54:15;;;;;;;11.13;4.18;;;14.70;65.60;;;;;;5071892;28;20420;-69
2021/05/16 03:56:41;;;;;;;17.60;4.38;;;14.70;66.00;;;;;;5088192;28;20032;-69
2021/05/16 03:59:08;;;;;;;8.98;4.60;;;14.70;66.00;;;;;;5085924;28;20034;-69
2021/05/16 04:01:34;;;;;;;9.85;4.20;;;14.70;66.20;;;;;;5092480;28;20358;-69
2021/05/16 04:04:00;;;;;;;14.48;5.25;;;14.60;65.90;;;;;;5094505;28;20020;-68
2021/05/16 04:06:27;;;;;;;39.88;9.05;;;14.60;66.60;;;;;;5093930;28;20038;-69
2021/05/16 04:08:53;;;;;;;9.50;3.38;;;14.70;66.60;;;;;;5088228;28;20024;-68
2021/05/16 04:11:20;;;;;;;12.98;4.75;;;14.70;66.70;;;;;;5089389;28;20038;-69
2021/05/16 04:13:46;;;;;;;14.75;4.78;;;14.70;66.50;;;;;;5091690;28;20055;-69
2021/05/16 04:16:13;;;;;;;10.88;5.78;;;14.60;66.50;;;;;;5084668;28;20042;-68
2021/05/16 04:18:39;;;;;;;8.68;3.45;;;14.50;67.10;;;;;;5115859;28;20034;-69
2021/05/16 04:21:06;;;;;;;20.20;6.57;;;14.40;67.20;;;;;;5116099;28;20074;-70
2021/05/16 04:23:36;;;;;;;18.42;5.47;;;14.50;67.50;;;;;;5096841;28;20027;-69
2021/05/16 04:26:03;;;;;;;8.68;3.33;;;14.60;67.50;;;;;;5094025;28;20024;-69
2021/05/16 04:28:29;;;;;;;11.73;4.45;;;14.50;67.40;;;;;;5102399;28;20031;-68
2021/05/16 04:30:56;;;;;;;17.00;5.88;;;14.40;67.60;;;;;;5117998;28;20024;-68
2021/05/16 04:33:22;;;;;;;14.65;8.13;;;14.40;67.10;;;;;;5083457;28;20408;-69
2021/05/16 04:35:49;;;;;;;23.15;6.68;;;14.30;67.30;;;;;;5095044;28;20028;-69
2021/05/16 04:38:15;;;;;;;14.77;4.15;;;14.40;67.10;;;;;;5096348;28;20109;-69
2021/05/16 04:40:45;;;;;;;16.95;4.30;;;14.40;67.60;;;;;;5100256;28;20020;-68
2021/05/16 04:43:12;;;;;;;14.52;4.45;;;14.40;67.40;;;;;;5088107;28;20024;-69
2021/05/16 04:45:39;;;;;;;12.27;3.45;;;14.40;68.00;;;;;;5112790;28;20405;-69
2021/05/16 04:48:07;;;;;;;8.25;3.47;;;14.40;67.70;;;;;;5077966;28;20028;-68
2021/05/16 04:50:34;;;;;;;11.18;4.30;;;14.40;67.40;;;;;;5097904;28;20024;-69
2021/05/16 04:53:00;;;;;;;8.82;4.68;;;14.40;67.70;;;;;;5096414;28;20142;-69
2021/05/16 04:55:27;;;;;;;13.00;3.60;;;14.30;67.60;;;;;;5098553;28;20080;-69
2021/05/16 04:57:54;;;;;;;21.33;4.22;;;14.30;67.50;;;;;;5092397;28;20516;-70
2021/05/16 05:00:21;;;;;;;5.38;3.05;;;14.20;68.50;;;;;;5098640;28;20028;-69
2021/05/16 05:02:47;;;;;;;11.85;5.25;;;14.30;68.30;;;;;;5096801;28;20020;-69
2021/05/16 05:05:15;;;;;;;15.52;4.55;;;14.30;68.40;;;;;;5091084;28;20026;-68
2021/05/16 05:07:41;;;;;;;5.00;3.28;;;14.30;68.40;;;;;;5099122;28;20350;-69
2021/05/16 05:10:09;;;;;;;12.20;3.25;;;14.30;68.40;;;;;;5095667;28;20044;-69
2021/05/16 05:12:36;;;;;;;8.43;3.85;;;14.20;68.10;;;;;;5097889;28;20332;-69
2021/05/16 05:15:04;;;;;;;11.38;4.32;;;14.20;68.80;;;;;;5093787;28;20027;-69
2021/05/16 05:17:30;;;;;;;10.98;4.82;;;14.20;68.40;;;;;;5111208;28;20102;-69
2021/05/16 05:19:56;;;;;;;8.27;3.63;;;14.20;68.60;;;;;;5095764;28;20028;-69
2021/05/16 05:22:23;;;;;;;6.18;3.72;;;14.20;68.70;;;;;;5107599;28;20033;-69
2021/05/16 05:24:49;;;;;;;12.02;3.10;;;14.20;68.30;;;;;;5096304;28;20043;-69
2021/05/16 05:27:16;;;;;;;12.38;5.68;;;14.10;68.70;;;;;;5092579;28;20024;-69
2021/05/16 05:29:42;;;;;;;11.35;2.55;;;14.10;69.20;;;;;;5088360;28;20032;-69
2021/05/16 05:32:10;;;;;;;9.75;4.10;;;14.20;68.90;;;;;;5096715;28;20044;-69
2021/05/16 05:34:36;;;;;;;8.70;3.67;;;14.30;68.60;;;;;;5082086;28;20024;-69
2021/05/16 05:37:03;;;;;;;7.28;3.63;;;14.30;68.90;;;;;;5095653;28;20039;-68
2021/05/16 05:39:29;;;;;;;7.90;3.33;;;14.30;69.00;;;;;;5098317;28;20065;-68
2021/05/16 05:41:56;;;;;;;8.75;3.38;;;14.20;68.80;;;;;;5086211;28;20028;-68
2021/05/16 05:44:23;;;;;;;8.05;2.65;;;14.20;69.20;;;;;;5094448;28;20041;-69
2021/05/16 05:46:50;;;;;;;10.52;3.45;;;14.20;69.00;;;;;;5105536;28;20024;-68
2021/05/16 05:49:16;;;;;;;11.30;3.83;;;14.20;69.20;;;;;;5095031;28;20027;-69
2021/05/16 05:51:43;;;;;;;10.70;3.67;;;14.20;69.40;;;;;;5095731;28;20063;-69
2021/05/16 05:54:09;;;;;;;21.65;3.78;;;14.20;69.40;;;;;;5100147;28;20031;-69
2021/05/16 05:56:35;;;;;;;5.80;4.25;;;14.20;69.60;;;;;;5094041;28;20039;-69
2021/05/16 05:59:03;;;;;;;10.15;3.45;;;14.10;69.90;;;;;;5086675;28;20066;-69
2021/05/16 06:01:30;;;;;;;15.13;4.43;;;14.10;70.00;;;;;;5099659;28;20028;-68
2021/05/16 06:03:56;;;;;;;10.05;5.00;;;14.10;70.00;;;;;;5093877;28;20324;-69
2021/05/16 06:06:23;;;;;;;9.98;3.30;;;14.20;69.80;;;;;;5094191;28;20027;-68
2021/05/16 06:08:49;;;;;;;5.38;2.55;;;14.10;69.50;;;;;;5094106;28;20420;-68
2021/05/16 06:11:15;;;;;;;9.32;3.47;;;14.10;70.00;;;;;;5100701;28;20078;-69
2021/05/16 06:13:42;;;;;;;9.60;3.40;;;14.20;70.00;;;;;;5093126;28;20379;-69
2021/05/16 06:16:08;;;;;;;9.85;4.20;;;14.20;69.90;;;;;;5100096;28;20361;-68
2021/05/16 06:18:36;;;;;;;11.80;3.20;;;14.10;70.00;;;;;;5094078;28;20024;-69
2021/05/16 06:21:02;;;;;;;8.32;3.00;;;14.20;69.50;;;;;;5095966;28;20028;-69
2021/05/16 06:23:43;;;;;;;16.13;4.82;;;14.20;69.60;;;;;;5099329;28;20537;-72
2021/05/16 06:26:10;;;;;;;6.65;3.92;;;14.10;69.70;;;;;;5098382;28;20448;-69
2021/05/16 06:28:36;;;;;;;6.63;3.35;;;14.10;69.60;;;;;;5092236;28;20400;-68
2021/05/16 06:31:03;;;;;;;18.73;4.90;;;14.20;69.80;;;;;;5099127;28;20028;-69
2021/05/16 06:33:29;;;;;;;10.63;4.03;;;14.20;69.70;;;;;;5095025;28;20043;-69
2021/05/16 06:35:55;;;;;;;6.72;3.97;;;14.10;69.40;;;;;;5093970;28;20134;-69
2021/05/16 06:38:22;;;;;;;7.05;3.42;;;14.10;69.30;;;;;;5100895;28;20509;-69
2021/05/16 06:40:48;;;;;;;7.05;3.00;;;14.10;69.90;;;;;;5099585;28;20028;-69
2021/05/16 06:43:17;;;;;;;9.45;3.35;;;14.10;70.20;;;;;;5102325;28;20020;-69
2021/05/16 06:45:44;;;;;;;8.15;2.88;;;14.10;70.20;;;;;;5094063;28;20020;-68
2021/05/16 06:48:10;;;;;;;12.88;4.43;;;14.10;69.80;;;;;;5101535;28;20039;-69
2021/05/16 06:50:36;;;;;;;10.68;3.28;;;14.10;70.20;;;;;;5087189;28;20024;-68
2021/05/16 06:53:03;;;;;;;6.75;3.17;;;14.10;70.30;;;;;;5095091;28;20032;-69
2021/05/16 06:55:29;;;;;;;18.75;4.18;;;14.00;70.40;;;;;;5094754;28;20350;-69
2021/05/16 06:57:55;;;;;;;13.02;5.13;;;14.00;70.70;;;;;;5078876;28;20344;-69
2021/05/16 07:00:22;;;;;;;6.13;3.05;;;14.10;70.50;;;;;;5094302;28;20087;-69
2021/05/16 07:02:48;;;;;;;14.20;5.15;;;14.10;70.60;;;;;;5097066;28;20016;-68
2021/05/16 07:05:15;;;;;;;15.30;3.80;;;14.00;70.40;;;;;;5089548;28;20067;-69
2021/05/16 07:07:41;;;;;;;6.05;3.30;;;14.00;70.60;;;;;;5095056;28;20020;-67
2021/05/16 07:10:08;;;;;;;16.55;6.22;;;13.90;71.10;;;;;;5102459;28;20518;-68
2021/05/16 07:12:35;;;;;;;11.93;3.83;;;13.90;70.90;;;;;;5094068;28;20470;-68
2021/05/16 07:15:01;;;;;;;10.60;3.25;;;14.00;70.70;;;;;;5081049;28;20028;-68
2021/05/16 07:17:28;;;;;;;10.40;3.42;;;14.00;70.50;;;;;;5094253;28;20024;-68
2021/05/16 07:19:54;;;;;;;7.25;3.25;;;13.90;70.50;;;;;;5101558;28;20051;-68
2021/05/16 07:22:21;;;;;;;11.73;4.55;;;14.00;70.80;;;;;;5093527;28;20021;-68
2021/05/16 07:24:47;;;;;;;15.82;5.35;;;13.90;70.70;;;;;;5099529;28;20057;-67
2021/05/16 07:27:14;;;;;;;15.63;4.45;;;13.90;70.60;;;;;;5095781;28;20061;-67
2021/05/16 07:29:40;;;;;;;13.05;3.58;;;13.80;70.90;;;;;;5097607;28;20020;-68
2021/05/16 07:32:07;;;;;;;9.57;3.63;;;13.80;71.00;;;;;;5115092;28;20500;-70
2021/05/16 07:34:33;;;;;;;10.27;3.55;;;13.90;70.90;;;;;;5098178;28;20397;-70
2021/05/16 07:36:59;;;;;;;10.68;3.17;;;14.00;70.70;;;;;;5109120;28;20036;-69
2021/05/16 07:39:26;;;;;;;9.25;5.03;;;14.00;70.80;;;;;;5097368;28;20027;-69
2021/05/16 07:41:53;;;;;;;10.18;3.55;;;13.90;70.60;;;;;;5098697;28;20016;-69
2021/05/16 07:44:19;;;;;;;9.00;3.58;;;14.00;70.80;;;;;;5097353;28;20028;-69
2021/05/16 07:46:45;;;;;;;10.40;3.25;;;14.00;71.00;;;;;;5100897;28;20077;-69
2021/05/16 07:49:12;;;;;;;8.48;4.65;;;13.90;70.80;;;;;;5096225;28;20119;-69
2021/05/16 07:51:38;;;;;;;10.05;2.97;;;13.90;70.50;;;;;;5106968;28;20019;-70
2021/05/16 07:54:05;;;;;;;7.80;2.60;;;13.90;71.10;;;;;;5096740;28;20097;-70
2021/05/16 07:56:31;;;;;;;18.02;5.82;;;13.80;70.80;;;;;;5096212;28;20357;-71
2021/05/16 07:58:57;;;;;;;6.40;3.28;;;13.80;71.00;;;;;;5098034;28;20036;-70
2021/05/16 08:01:24;;;;;;;9.82;3.95;;;13.80;71.20;;;;;;5096699;28;20362;-70
2021/05/16 08:03:50;;;;;;;7.65;3.50;;;13.90;70.90;;;;;;5085561;28;20350;-72
2021/05/16 08:06:17;;;;;;;15.93;4.20;;;13.80;71.00;;;;;;5096616;28;20106;-69
2021/05/16 08:08:44;;;;;;;7.15;3.28;;;13.90;70.70;;;;;;5090728;28;20067;-69
2021/05/16 08:11:10;;;;;;;8.85;3.70;;;13.90;70.90;;;;;;5075577;28;20028;-70
2021/05/16 08:13:37;;;;;;;9.52;3.70;;;13.90;70.80;;;;;;5099638;28;20455;-69
2021/05/16 08:16:03;;;;;;;9.18;3.45;;;13.90;70.50;;;;;;5099598;28;20031;-69
2021/05/16 08:18:30;;;;;;;9.50;3.15;;;13.80;70.70;;;;;;5096993;28;20045;-69
2021/05/16 08:20:56;;;;;;;3.60;3.30;;;13.90;70.50;;;;;;5095788;28;20035;-69
2021/05/16 08:23:23;;;;;;;6.55;2.47;;;13.90;70.60;;;;;;5102666;28;20032;-69
2021/05/16 08:25:50;;;;;;;9.70;3.47;;;13.90;70.20;;;;;;5091232;28;20308;-69
2021/05/16 08:28:16;;;;;;;9.05;2.97;;;13.90;70.00;;;;;;5094686;28;20417;-70
2021/05/16 08:30:43;;;;;;;7.60;2.67;;;13.90;70.20;;;;;;5094359;28;20050;-69
2021/05/16 08:33:10;;;;;;;10.55;3.38;;;14.00;69.90;;;;;;5095871;28;20042;-68
2021/05/16 08:35:37;;;;;;;7.32;2.97;;;14.00;69.60;;;;;;5097779;28;20107;-69
2021/05/16 08:38:04;;;;;;;7.65;3.45;;;14.00;69.70;;;;;;5096206;28;20059;-69
2021/05/16 08:40:30;;;;;;;5.03;3.17;;;14.00;69.80;;;;;;5085531;28;20035;-69
2021/05/16 08:42:57;;;;;;;7.80;3.22;;;14.00;69.40;;;;;;5096906;28;20031;-71
2021/05/16 08:45:23;;;;;;;4.55;2.03;;;13.90;69.60;;;;;;5107116;28;20400;-69
2021/05/16 08:47:50;;;;;;;13.77;3.97;;;13.90;69.40;;;;;;5094401;28;20046;-68
2021/05/16 08:50:18;;;;;;;7.65;2.50;;;13.90;69.40;;;;;;5098877;28;20020;-69
2021/05/16 08:52:44;;;;;;;4.07;2.95;;;14.00;69.20;;;;;;5096853;28;20020;-68
2021/05/16 08:55:14;;;;;;;5.13;2.65;;;14.00;68.90;;;;;;5096032;28;20363;-69
2021/05/16 08:57:41;;;;;;;6.50;2.47;;;13.90;69.40;;;;;;5094965;28;20085;-69
2021/05/16 09:00:16;;;;;;;6.25;2.70;;;14.00;68.80;;;;;;5081874;28;20035;-69
2021/05/16 09:03:04;;;;;;;4.97;1.98;;;13.90;69.30;;;;;;5095194;28;20071;-71
2021/05/16 09:05:36;;;;;;;4.00;1.83;;;14.00;68.80;;;;;;5079118;28;20025;-69
2021/05/16 09:08:16;;;;;;;6.50;2.70;;;14.00;68.50;;;;;;5096040;28;20082;-69
2021/05/16 09:11:09;;;;;;;8.73;2.50;;;14.00;68.90;;;;;;5095827;28;20439;-69
2021/05/16 09:13:40;;;;;;;3.55;1.80;;;14.00;68.50;;;;;;5094909;28;20043;-68
2021/05/16 09:18:53;;;;;;;7.45;4.00;;;14.00;68.70;;;;;;5336131;22;19920;-76
2021/05/16 09:21:31;;;;;;;9.63;3.55;;;14.00;68.90;;;;;;5077769;28;20040;-75
2021/05/16 09:24:04;;;;;;;7.78;3.00;;;14.10;68.60;;;;;;5088121;28;20046;-75
2021/05/16 09:26:33;;;;;;;9.18;2.95;;;14.00;68.90;;;;;;5096371;28;20378;-75
2021/05/16 09:29:23;;;;;;;5.03;2.50;;;14.10;68.80;;;;;;5078502;28;20516;-75
2021/05/16 09:31:51;;;;;;;10.65;3.00;;;14.00;68.90;;;;;;5093861;28;20032;-76
2021/05/16 09:34:18;;;;;;;4.22;2.13;;;14.00;68.90;;;;;;5095151;28;20120;-75
2021/05/16 09:36:46;;;;;;;9.45;3.05;;;14.00;69.20;;;;;;5082618;28;20355;-75
2021/05/16 09:39:15;;;;;;;8.77;2.30;;;14.10;68.80;;;;;;5098245;28;21646;-75
2021/05/16 09:42:12;;;;;;;7.70;2.60;;;14.10;69.10;;;;;;5078064;28;20024;-75
2021/05/16 09:44:45;;;;;;;7.78;2.88;;;14.00;69.20;;;;;;5062431;28;20355;-75
2021/05/16 09:47:11;;;;;;;8.85;3.05;;;14.00;69.20;;;;;;5070053;28;20024;-75
2021/05/16 09:49:38;;;;;;;11.20;3.08;;;14.00;69.30;;;;;;5084849;28;20113;-76
2021/05/16 09:52:09;;;;;;;10.13;4.00;;;14.10;69.40;;;;;;5092908;28;20036;-76
2021/05/16 09:55:02;;;;;;;7.03;3.38;;;14.10;69.50;;;;;;5113878;28;20097;-75
2021/05/16 09:57:31;;;;;;;5.30;3.10;;;13.90;69.70;;;;;;5047070;28;20105;-75
2021/05/16 09:59:58;;;;;;;11.82;2.65;;;14.00;69.90;;;;;;5092493;28;20039;-75
2021/05/16 10:02:27;;;;;;;8.20;3.78;;;13.90;69.60;;;;;;5105397;28;20030;-75
2021/05/16 10:04:55;;;;;;;5.28;2.72;;;13.90;70.20;;;;;;5077711;28;20028;-75
2021/05/16 10:07:23;;;;;;;8.88;2.97;;;14.00;70.30;;;;;;5095176;28;20409;-74
2021/05/16 10:09:52;;;;;;;16.67;4.57;;;14.00;70.00;;;;;;5096528;28;20032;-76
2021/05/16 10:12:19;;;;;;;6.50;2.45;;;13.90;70.20;;;;;;5103331;28;20031;-77
2021/05/16 10:15:06;;;;;;;6.57;2.80;;;13.90;70.10;;;;;;5104672;28;20028;-77
2021/05/16 10:17:36;;;;;;;6.00;2.85;;;13.90;70.00;;;;;;5106707;28;20055;-76
2021/05/16 10:20:16;;;;;;;4.85;3.17;;;13.80;70.20;;;;;;5100376;28;20107;-76
2021/05/16 10:22:56;;;;;;;22.00;3.45;;;13.80;69.90;;;;;;5116049;28;20031;-75
2021/05/16 10:25:45;;;;;;;8.65;3.40;;;13.90;69.80;;;;;;5075238;28;20128;-75
2021/05/16 10:28:15;;;;;;;7.80;2.40;;;13.90;69.70;;;;;;5082615;28;20024;-75
2021/05/16 10:31:09;;;;;;;10.18;3.15;;;13.80;69.60;;;;;;5091656;28;20020;-75
2021/05/16 10:33:42;;;;;;;7.15;2.50;;;13.70;69.90;;;;;;5065496;28;20020;-75
2021/05/16 10:36:08;;;;;;;4.90;2.55;;;13.70;69.80;;;;;;5093906;28;20016;-75
2021/05/16 10:38:40;;;;;;;5.57;2.58;;;13.80;69.80;;;;;;5094593;28;20465;-75
2021/05/16 10:41:25;;;;;;;11.88;2.80;;;13.70;70.00;;;;;;5068652;28;20024;-74
2021/05/16 10:44:30;;;;;;;5.95;3.30;;;13.80;69.40;;;;;;5091129;28;20109;-75
2021/05/16 10:46:57;;;;;;;4.63;2.30;;;13.90;68.70;;;;;;5102441;28;20031;-75
2021/05/16 10:49:26;;;;;;;2.72;1.67;;;13.80;68.60;;;;;;5105169;28;20020;-75
2021/05/16 10:51:54;;;;;;;2.33;2.08;;;13.80;68.60;;;;;;5112021;28;20347;-75
2021/05/16 10:54:31;;;;;;;5.18;2.67;;;13.80;68.50;;;;;;5109920;28;20078;-76
2021/05/16 10:57:15;;;;;;;3.88;2.20;;;13.70;68.50;;;;;;5104557;28;20524;-74
2021/05/16 10:59:42;;;;;;;7.25;2.38;;;13.80;68.50;;;;;;5088242;28;20035;-75
2021/05/16 11:02:08;;;;;;;5.57;2.38;;;13.80;68.10;;;;;;5095274;28;20023;-74
2021/05/16 11:04:50;;;;;;;4.93;2.10;;;13.70;68.60;;;;;;5097353;28;20031;-75
2021/05/16 11:07:36;;;;;;;3.60;1.75;;;13.80;68.30;;;;;;5094236;28;20077;-75
2021/05/16 11:10:26;;;;;;;3.80;2.03;;;13.80;68.40;;;;;;5081073;28;20126;-75
2021/05/16 11:12:52;;;;;;;5.28;2.20;;;13.90;68.40;;;;;;5090659;28;20039;-75
2021/05/16 11:15:25;;;;;;;6.93;2.75;;;13.80;68.40;;;;;;5109441;28;20031;-74
2021/05/16 11:17:52;;;;;;;4.43;2.05;;;13.80;68.80;;;;;;5112912;28;20454;-75
2021/05/16 11:20:19;;;;;;;2.35;2.15;;;13.80;68.70;;;;;;5095383;28;20457;-76
2021/05/16 11:22:46;;;;;;;4.35;1.77;;;13.90;69.10;;;;;;5080015;28;20519;-75
2021/05/16 11:25:22;;;;;;;9.45;3.13;;;13.80;69.00;;;;;;5094374;28;20051;-75
2021/05/16 11:27:49;;;;;;;1.88;1.77;;;13.80;68.90;;;;;;5080512;28;20030;-75
2021/05/16 11:30:26;;;;;;;3.72;2.17;;;13.80;69.20;;;;;;5093644;28;20020;-75
2021/05/16 11:32:52;;;;;;;15.65;3.10;;;13.70;69.30;;;;;;5076867;28;20032;-75
2021/05/16 11:35:21;;;;;;;7.20;2.85;;;13.70;69.10;;;;;;5103597;28;20016;-74
2021/05/16 11:37:51;;;;;;;2.75;2.00;;;13.70;69.20;;;;;;5075452;28;20119;-76
2021/05/16 11:40:31;;;;;;;5.60;2.22;;;13.80;68.80;;;;;;5075517;28;20036;-74
2021/05/16 11:43:06;;;;;;;2.65;2.25;;;13.80;68.60;;;;;;5093814;28;20008;-74
2021/05/16 11:45:43;;;;;;;4.78;1.65;;;14.00;67.90;;;;;;5110964;28;20016;-74
2021/05/16 11:48:36;;;;;;;6.80;2.00;;;13.90;68.40;;;;;;5080233;28;20085;-75
2021/05/16 11:51:17;;;;;;;2.30;1.48;;;13.70;68.30;;;;;;5088173;28;20461;-75
2021/05/16 11:54:03;;;;;;;2.70;2.50;;;13.70;68.50;;;;;;5094071;28;20025;-75
2021/05/16 11:56:38;;;;;;;5.40;2.03;;;13.80;68.50;;;;;;5100226;28;20023;-75
2021/05/16 11:59:05;;;;;;;8.80;2.05;;;13.90;68.20;;;;;;5100026;28;20028;-75
2021/05/16 12:01:37;;;;;;;4.38;2.33;;;13.90;68.10;;;;;;5098815;28;20062;-75
2021/05/16 12:04:08;;;;;;;4.03;2.33;;;13.70;68.60;;;;;;5087353;28;20358;-75
2021/05/16 12:06:57;;;;;;;3.88;2.17;;;13.70;68.90;;;;;;5093910;28;20016;-75
2021/05/16 12:09:26;;;;;;;3.58;1.95;;;13.90;68.90;;;;;;5090690;28;20020;-75
2021/05/16 12:11:54;;;;;;;4.97;2.00;;;13.90;68.60;;;;;;5081684;28;20096;-74
2021/05/16 12:14:30;;;;;;;4.07;1.88;;;14.00;68.40;;;;;;5076153;28;20031;-75
2021/05/16 12:17:00;;;;;;;5.03;1.98;;;14.00;68.30;;;;;;5101300;28;20072;-74
2021/05/16 12:19:37;;;;;;;4.00;2.05;;;13.90;68.60;;;;;;5106006;28;20023;-74
2021/05/16 12:22:07;;;;;;;8.73;2.75;;;13.90;68.30;;;;;;5095372;28;20052;-76
2021/05/16 12:24:36;;;;;;;3.15;1.70;;;13.80;68.60;;;;;;5100625;28;20046;-74
2021/05/16 12:27:04;;;;;;;5.32;1.95;;;13.80;69.00;;;;;;5096883;28;20454;-74
2021/05/16 12:29:32;;;;;;;6.88;1.80;;;13.90;68.80;;;;;;5081009;28;20406;-73
2021/05/16 12:31:58;;;;;;;3.35;1.73;;;14.00;68.50;;;;;;5092708;28;20086;-74
2021/05/16 12:34:26;;;;;;;2.88;1.70;;;13.90;68.20;;;;;;5096812;28;20118;-74
2021/05/16 12:36:58;;;;;;;6.40;2.10;;;13.90;68.10;;;;;;5087324;28;20032;-76
2021/05/16 12:39:44;;;;;;;4.95;1.67;;;13.90;68.30;;;;;;5096951;28;20526;-74
2021/05/16 12:42:31;;;;;;;2.05;1.95;;;13.90;68.60;;;;;;5078239;28;20042;-74
2021/05/16 12:45:18;;;;;;;4.80;1.98;;;13.90;68.70;;;;;;5096642;28;20050;-76
2021/05/16 12:48:05;;;;;;;5.95;1.75;;;13.90;68.50;;;;;;5109780;28;20339;-76
2021/05/16 12:50:56;;;;;;;1.92;1.83;;;13.90;68.40;;;;;;5096965;28;20470;-76
2021/05/16 12:53:24;;;;;;;2.00;1.90;;;14.00;69.30;;;;;;5093255;28;20035;-75
2021/05/16 12:55:57;;;;;;;3.80;2.10;;;13.90;68.40;;;;;;5078537;28;20051;-77